Time;durP1;ratioP1;P1;durP2;ratioP2;P2;SDS_P1;SDS_P2;PMS_P1;PMS_P2;Temp;Humidity;BMP_temperature;BMP_pressure;BME280_temperature;BME280_humidity;BME280_pressure;Samples;Min_cycle;Max_cycle;Signal;HPM_P1;HPM_P2
2023/02/20 00:00:09;;;;;;;1.12;0.50;;;;;;;6.10;59.52;100375.53;4472434;32;20096;-91
2023/02/20 00:02:35;;;;;;;3.05;1.10;;;;;;;6.06;59.52;100415.16;4485319;32;20124;-92
2023/02/20 00:05:00;;;;;;;1.85;0.98;;;;;;;6.18;59.52;100411.69;4468876;32;20138;-90
2023/02/20 00:07:26;;;;;;;3.33;1.05;;;;;;;6.27;59.52;100419.41;4464086;32;20091;-91
2023/02/20 00:09:51;;;;;;;2.17;1.12;;;;;;;6.35;59.54;100428.00;4471606;32;20111;-91
2023/02/20 00:12:17;;;;;;;1.55;1.05;;;;;;;6.29;59.53;100434.03;4484878;32;20109;-92
2023/02/20 00:14:42;;;;;;;1.17;0.62;;;;;;;6.31;59.53;100444.37;4472840;31;20118;-92
2023/02/20 00:17:07;;;;;;;4.57;1.00;;;;;;;6.36;59.54;100442.62;4459800;31;20448;-90
2023/02/20 00:19:33;;;;;;;1.90;0.68;;;;;;;6.42;59.53;100452.97;4458392;32;20495;-91
2023/02/20 00:21:58;;;;;;;2.50;0.90;;;;;;;6.39;59.53;100448.69;4484568;31;20483;-91
2023/02/20 00:24:24;;;;;;;2.37;0.77;;;;;;;6.34;59.53;100449.53;4484709;31;20096;-91
2023/02/20 00:26:51;;;;;;;3.20;0.80;;;;;;;6.57;59.54;100442.53;4463207;32;20881;-89
2023/02/20 00:29:17;;;;;;;3.90;1.20;;;;;;;6.42;59.53;100450.37;4476072;31;20103;-89
2023/02/20 00:31:42;;;;;;;1.58;1.00;;;;;;;6.22;59.53;100447.88;4471142;32;20139;-89
2023/02/20 00:34:08;;;;;;;3.03;1.33;;;;;;;6.13;59.52;100451.31;4474595;31;20125;-89
2023/02/20 00:36:33;;;;;;;1.17;0.80;;;;;;;6.17;59.52;100466.84;4492108;31;20111;-91
2023/02/20 00:38:59;;;;;;;3.72;1.20;;;;;;;6.19;59.52;100470.28;4464369;31;20120;-88
2023/02/20 00:41:24;;;;;;;2.90;1.23;;;;;;;6.19;59.52;100480.63;4471050;32;20443;-89
2023/02/20 00:43:49;;;;;;;5.05;1.52;;;;;;;6.08;59.52;100481.50;4471223;31;20148;-90
2023/02/20 00:46:15;;;;;;;4.40;1.37;;;;;;;6.02;59.52;100489.28;4470906;32;20477;-88
2023/02/20 00:48:41;;;;;;;3.47;1.45;;;;;;;5.87;59.50;100492.69;4469773;32;20551;-88
2023/02/20 00:51:06;;;;;;;2.50;1.35;;;;;;;5.92;59.51;100502.22;4464254;32;20100;-89
2023/02/20 00:53:32;;;;;;;4.20;1.95;;;;;;;5.84;59.51;100505.63;4481251;32;20146;-88
2023/02/20 00:55:57;;;;;;;3.78;1.52;;;;;;;5.87;59.50;100509.91;4470893;32;20107;-89
2023/02/20 00:58:23;;;;;;;5.87;1.73;;;;;;;5.92;59.51;100512.56;4483592;32;20115;-89
2023/02/20 01:00:48;;;;;;;3.05;1.70;;;;;;;5.90;59.50;100509.09;4457960;32;20206;-89
2023/02/20 01:03:14;;;;;;;4.00;1.45;;;;;;;5.66;59.49;100521.13;4471125;32;20108;-91
2023/02/20 01:05:39;;;;;;;6.05;1.77;;;;;;;5.72;59.50;100528.03;4484568;32;20133;-90
2023/02/20 01:08:05;;;;;;;3.92;2.17;;;;;;;5.64;59.49;100517.66;4484252;32;20100;-89
2023/02/20 01:10:30;;;;;;;4.40;1.60;;;;;;;5.61;59.48;100521.97;4467801;31;20200;-89
2023/02/20 01:12:56;;;;;;;2.62;1.58;;;;;;;5.54;59.49;100513.38;4481747;32;20100;-90
2023/02/20 01:15:21;;;;;;;3.45;2.03;;;;;;;5.75;59.49;100523.72;4468800;31;20152;-89
2023/02/20 01:17:49;;;;;;;2.62;1.50;;;;;;;5.75;59.49;100513.38;4471598;32;20369;-89
2023/02/20 01:20:34;;;;;;;5.12;1.90;;;;;;;5.47;59.49;100522.00;4467503;32;20108;-88
2023/02/20 01:23:04;;;;;;;3.58;1.83;;;;;;;5.47;59.48;100524.56;4481222;31;20155;-90
2023/02/20 01:25:29;;;;;;;4.30;1.80;;;;;;;5.50;59.48;100528.00;4489214;31;20125;-91
2023/02/20 01:27:58;;;;;;;3.25;1.73;;;;;;;5.36;59.47;100524.53;4473743;32;20424;-88
2023/02/20 01:30:23;;;;;;;6.78;2.05;;;;;;;5.43;59.48;100533.16;4461066;32;20390;-90
2023/02/20 01:32:49;;;;;;;6.12;1.90;;;;;;;5.19;59.47;100533.97;4474128;32;20132;-89
2023/02/20 01:35:17;;;;;;;3.75;1.70;;;;;;;5.35;59.47;100534.84;4486376;32;20130;-88
2023/02/20 01:37:43;;;;;;;4.22;2.00;;;;;;;5.36;59.47;100534.88;4487343;32;20114;-89
2023/02/20 01:40:20;;;;;;;5.03;2.12;;;;;;;5.22;59.46;100537.44;4460124;31;20132;-89
2023/02/20 01:42:46;;;;;;;4.18;2.00;;;;;;;5.29;59.47;100537.44;4468293;31;20119;-89
2023/02/20 01:45:23;;;;;;;4.22;2.08;;;;;;;5.24;59.47;100543.47;4474271;31;20149;-91
2023/02/20 01:47:50;;;;;;;6.20;2.10;;;;;;;5.33;59.48;100545.19;4486765;32;20126;-90
2023/02/20 01:50:17;;;;;;;4.45;2.30;;;;;;;5.24;59.46;100547.75;4470591;32;20127;-89
2023/02/20 01:52:47;;;;;;;4.22;1.80;;;;;;;5.32;59.48;100550.34;4467201;32;20147;-92
2023/02/20 01:55:23;;;;;;;4.80;2.33;;;;;;;5.42;59.48;100547.78;4489246;31;20110;-92
2023/02/20 01:58:09;;;;;;;4.35;1.73;;;;;;;5.60;59.49;100554.69;4479383;32;20121;-91
2023/02/20 02:00:35;;;;;;;3.05;1.40;;;;;;;5.47;59.48;100560.72;4471710;32;20509;-90
2023/02/20 02:03:10;;;;;;;2.70;1.65;;;;;;;5.37;59.48;100552.06;4485123;32;20096;-91
2023/02/20 02:05:37;;;;;;;4.65;2.03;;;;;;;5.47;59.49;100556.41;4494796;31;20107;-94
2023/02/20 02:08:03;;;;;;;5.07;1.77;;;;;;;5.26;59.47;100558.94;4463759;31;20091;-93
2023/02/20 02:10:54;;;;;;;3.58;2.00;;;;;;;5.32;59.48;100558.94;4464167;31;20117;-92
2023/02/20 02:13:22;;;;;;;4.12;2.00;;;;;;;5.23;59.46;100551.19;4469138;32;20703;-92
2023/02/20 02:15:52;;;;;;;4.20;1.98;;;;;;;5.16;59.47;100560.62;4472050;31;21780;-90
2023/02/20 02:19:04;;;;;;;2.35;1.40;;;;;;;5.03;59.46;100556.31;4461990;32;20168;-88
2023/02/20 02:21:48;;;;;;;4.37;2.00;;;;;;;4.99;59.45;100562.31;4499722;31;20075;-90
2023/02/20 02:24:52;;;;;;;5.40;1.90;;;;;;;4.97;59.46;100558.87;4482268;31;20127;-91
2023/02/20 02:27:39;;;;;;;6.05;1.80;;;;;;;4.84;59.45;100559.66;4459493;31;20506;-88
2023/02/20 02:30:46;;;;;;;3.25;1.83;;;;;;;5.06;59.46;100568.34;4487139;32;20156;-93
2023/02/20 02:33:37;;;;;;;4.95;2.35;;;;;;;4.88;59.46;100566.56;4486793;32;21276;-90
2023/02/20 02:36:40;;;;;;;7.45;1.98;;;;;;;4.99;59.46;100562.31;4489361;31;20147;-92
2023/02/20 02:39:31;;;;;;;4.97;2.30;;;;;;;4.96;59.45;100571.72;4498640;31;20092;-89
2023/02/20 02:42:20;;;;;;;6.62;2.33;;;;;;;4.93;59.45;100577.75;4485094;31;20154;-91
2023/02/20 02:45:23;;;;;;;5.00;2.65;;;;;;;4.88;59.46;100569.13;4469540;32;20169;-90
2023/02/20 02:48:00;;;;;;;7.40;2.30;;;;;;;4.85;59.44;100579.44;4486499;32;20092;-89
2023/02/20 02:50:37;;;;;;;5.18;1.95;;;;;;;4.88;59.46;100575.16;4472563;32;20464;-90
2023/02/20 02:53:19;;;;;;;4.72;2.55;;;;;;;5.00;59.45;100571.78;4470370;31;20108;-89
2023/02/20 02:55:48;;;;;;;4.80;1.95;;;;;;;4.94;59.46;100580.31;4487993;31;20092;-90
2023/02/20 02:58:13;;;;;;;4.85;2.00;;;;;;;4.86;59.44;100582.03;4470441;32;20471;-91
2023/02/20 03:00:44;;;;;;;5.28;2.08;;;;;;;4.86;59.44;100587.19;4468301;31;20122;-88
2023/02/20 03:03:27;;;;;;;6.18;2.10;;;;;;;4.96;59.46;100592.38;4484335;32;20084;-90
2023/02/20 03:06:03;;;;;;;3.90;1.87;;;;;;;4.69;59.44;100603.41;4460205;32;20139;-90
2023/02/20 03:08:41;;;;;;;3.87;2.20;;;;;;;4.77;59.44;100607.78;4485778;32;20131;-90
2023/02/20 03:11:20;;;;;;;7.18;2.30;;;;;;;4.83;59.44;100612.97;4461504;32;20469;-90
2023/02/20 03:17:03;;;;;;;7.72;2.35;;;;;;;4.74;59.44;100606.91;4486623;31;20088;-90
2023/02/20 03:19:43;;;;;;;5.55;2.30;;;;;;;4.66;59.44;100601.69;4479196;31;20106;-88
2023/02/20 03:22:27;;;;;;;2.67;1.80;;;;;;;4.67;59.44;100593.09;4476308;32;20053;-93
2023/02/20 03:24:58;;;;;;;4.87;2.35;;;;;;;4.60;59.43;100599.94;4465372;32;20135;-92
2023/02/20 03:27:41;;;;;;;5.43;2.20;;;;;;;4.71;59.43;100587.09;4474512;31;20521;-91
2023/02/20 03:30:30;;;;;;;4.30;2.25;;;;;;;4.64;59.44;100585.34;4489149;31;20137;-91
2023/02/20 03:44:55;;;;;;;4.55;1.80;;;;;;;4.21;59.42;100607.41;4487239;31;20793;-93
2023/02/20 03:47:34;;;;;;;3.83;2.12;;;;;;;4.31;59.42;100619.53;4474133;32;20080;-92
2023/02/20 03:52:56;;;;;;;3.50;1.90;;;;;;;4.27;59.42;100617.78;4475974;32;20142;-94
2023/02/20 03:55:23;;;;;;;7.28;2.80;;;;;;;4.23;59.42;100614.28;4471443;32;20088;-93
2023/02/20 03:57:50;;;;;;;6.90;1.73;;;;;;;4.24;59.42;100616.00;4476533;31;20099;-93
2023/02/20 04:00:21;;;;;;;3.72;1.40;;;;;;;4.30;59.42;100610.06;4473434;32;20733;-93
2023/02/20 04:02:47;;;;;;;3.92;1.75;;;;;;;4.35;59.41;100607.50;4467238;31;20169;-92
2023/02/20 04:05:24;;;;;;;3.25;1.83;;;;;;;4.41;59.42;100604.97;4462019;32;20111;-93
2023/02/20 04:07:59;;;;;;;6.10;1.70;;;;;;;4.20;59.42;100606.53;4472174;31;20080;-92
2023/02/20 04:11:18;;;;;;;;;;;;;;;;;;;;;
2023/02/20 04:13:44;;;;;;;4.10;1.87;;;;;;;4.24;59.42;100604.84;4432235;32;34412;-89
2023/02/20 04:16:09;;;;;;;3.70;1.67;;;;;;;4.53;59.43;100602.50;4489759;31;20376;-92
2023/02/20 04:18:35;;;;;;;7.53;2.42;;;;;;;4.51;59.43;100605.06;4463414;32;20480;-91
2023/02/20 04:21:01;;;;;;;6.60;2.65;;;;;;;4.51;59.43;100607.63;4470539;31;20449;-92
2023/02/20 04:23:26;;;;;;;3.22;1.75;;;;;;;4.57;59.43;100605.09;4472841;32;20105;-90
2023/02/20 04:26:05;;;;;;;3.87;2.05;;;;;;;4.44;59.43;100611.00;4459227;32;20140;-91
2023/02/20 04:28:31;;;;;;;6.07;2.30;;;;;;;4.45;59.42;100615.31;4482773;32;20092;-90
2023/02/20 04:30:56;;;;;;;6.85;3.05;;;;;;;4.20;59.41;100614.28;4472408;32;20421;-89
2023/02/20 04:33:22;;;;;;;6.68;2.40;;;;;;;4.34;59.41;100624.69;4482182;32;20152;-89
2023/02/20 04:35:47;;;;;;;3.53;2.05;;;;;;;4.49;59.44;100622.19;4480048;31;20110;-90
2023/02/20 04:38:13;;;;;;;4.15;2.22;;;;;;;4.50;59.44;100626.53;4471894;31;20100;-90
2023/02/20 04:40:38;;;;;;;6.43;2.42;;;;;;;4.45;59.43;100625.62;4464562;32;20405;-88
2023/02/20 04:43:03;;;;;;;13.07;4.82;;;;;;;4.34;59.41;100621.25;4470591;32;20392;-89
2023/02/20 04:45:29;;;;;;;18.50;9.13;;;;;;;4.42;59.43;100615.28;4474810;32;20409;-89
2023/02/20 04:47:54;;;;;;;15.90;7.43;;;;;;;4.60;59.43;100605.09;4487656;31;20385;-88
2023/02/20 04:50:21;;;;;;;11.25;5.30;;;;;;;4.73;59.45;100597.41;4487498;31;20123;-89
2023/02/20 04:52:46;;;;;;;10.13;4.60;;;;;;;4.78;59.44;100599.19;4487545;31;20100;-88
2023/02/20 04:55:12;;;;;;;8.85;3.17;;;;;;;4.87;59.46;100582.87;4487765;31;20773;-89
2023/02/20 04:57:37;;;;;;;4.35;2.78;;;;;;;4.99;59.46;100580.38;4487612;31;20433;-90
2023/02/20 05:00:04;;;;;;;7.97;2.95;;;;;;;4.97;59.46;100570.88;4471959;32;20364;-89
2023/02/20 05:02:29;;;;;;;6.00;2.58;;;;;;;4.95;59.46;100560.56;4468885;31;20184;-89
2023/02/20 05:04:54;;;;;;;5.78;2.58;;;;;;;5.04;59.46;100562.31;4485924;31;20140;-89
2023/02/20 05:07:20;;;;;;;7.87;2.22;;;;;;;5.07;59.46;100568.34;4474547;31;20146;-90
2023/02/20 05:09:46;;;;;;;5.70;2.03;;;;;;;5.26;59.48;100573.56;4487749;31;20156;-91
2023/02/20 05:12:11;;;;;;;3.58;1.77;;;;;;;5.27;59.47;100577.88;4487270;31;20487;-91
2023/02/20 05:14:37;;;;;;;6.85;2.33;;;;;;;4.98;59.45;100580.38;4467320;32;20122;-90
2023/02/20 05:17:02;;;;;;;7.45;2.40;;;;;;;4.74;59.44;100583.69;4474824;31;20101;-91
2023/02/20 05:19:28;;;;;;;4.78;2.53;;;;;;;4.78;59.44;100591.47;4480938;32;20122;-89
2023/02/20 05:24:37;;;;;;;5.53;2.75;;;;;;;4.66;59.44;100595.66;4489581;31;20155;-89
2023/02/20 05:27:03;;;;;;;4.65;2.12;;;;;;;4.70;59.44;100598.28;4472702;32;20084;-92
2023/02/20 05:29:28;;;;;;;7.62;2.47;;;;;;;4.70;59.43;100608.59;4472314;32;20148;-92
2023/02/20 05:31:54;;;;;;;5.35;2.62;;;;;;;4.89;59.45;100599.22;4472416;32;20128;-89
2023/02/20 05:34:24;;;;;;;4.80;2.05;;;;;;;4.65;59.44;100594.81;4471949;32;20115;-90
2023/02/20 05:36:49;;;;;;;6.55;2.35;;;;;;;4.71;59.43;100601.72;4472843;31;20088;-92
2023/02/20 05:39:15;;;;;;;3.70;2.12;;;;;;;4.60;59.43;100605.09;4472665;32;20140;-92
2023/02/20 05:41:40;;;;;;;5.28;2.47;;;;;;;4.66;59.44;100601.69;4464699;31;20118;-92
2023/02/20 05:44:06;;;;;;;5.03;2.53;;;;;;;4.85;59.45;100592.34;4472230;32;20100;-90
2023/02/20 05:46:31;;;;;;;4.55;1.85;;;;;;;5.28;59.47;100590.78;4471296;32;20119;-90
2023/02/20 05:48:57;;;;;;;2.67;1.02;;;;;;;5.17;59.47;100588.16;4468248;31;20146;-91
2023/02/20 05:51:29;;;;;;;2.05;1.20;;;;;;;5.32;59.48;100592.50;4484901;31;20096;-87
2023/02/20 05:53:54;;;;;;;3.10;1.55;;;;;;;5.24;59.47;100594.22;4471624;32;20111;-91
2023/02/20 05:56:20;;;;;;;2.65;0.85;;;;;;;5.31;59.47;100589.94;4460760;31;20096;-90
2023/02/20 05:58:45;;;;;;;1.92;1.00;;;;;;;5.35;59.47;100599.41;4494759;31;20401;-90
2023/02/20 06:01:24;;;;;;;2.78;0.80;;;;;;;5.48;59.49;100607.19;4469219;32;20137;-91
2023/02/20 06:03:50;;;;;;;1.67;0.70;;;;;;;5.38;59.47;100608.00;4474579;31;20452;-90
2023/02/20 06:06:15;;;;;;;3.85;0.73;;;;;;;5.53;59.49;100607.19;4464833;32;20113;-90
2023/02/20 06:08:41;;;;;;;1.98;0.75;;;;;;;5.63;59.50;100602.91;4468999;31;20104;-91
2023/02/20 06:11:06;;;;;;;4.82;1.00;;;;;;;5.66;59.49;100608.94;4474591;32;20466;-90
2023/02/20 06:13:32;;;;;;;3.42;0.75;;;;;;;5.56;59.49;100614.94;4467901;31;20118;-91
2023/02/20 06:15:57;;;;;;;1.35;0.75;;;;;;;5.60;59.49;100632.16;4470704;32;20380;-89
2023/02/20 06:18:23;;;;;;;4.57;2.12;;;;;;;5.69;59.50;100631.34;4472747;31;20157;-90
2023/02/20 06:20:48;;;;;;;1.65;0.80;;;;;;;5.68;59.50;100625.31;4481415;32;20097;-92
2023/02/20 06:23:14;;;;;;;3.67;1.05;;;;;;;5.79;59.50;100633.06;4459268;31;20092;-91
2023/02/20 06:25:39;;;;;;;4.53;1.23;;;;;;;5.68;59.50;100625.31;4471596;32;20139;-92
2023/02/20 06:28:05;;;;;;;4.65;0.95;;;;;;;5.80;59.50;100632.22;4471656;31;20404;-93
2023/02/20 06:30:30;;;;;;;1.33;0.90;;;;;;;5.84;59.51;100623.59;4458779;31;20104;-92
2023/02/20 06:32:56;;;;;;;2.70;1.00;;;;;;;6.09;59.52;100627.97;4465492;31;20093;-91
2023/02/20 06:35:21;;;;;;;5.93;1.00;;;;;;;6.10;59.52;100616.75;4474307;32;20088;-91
2023/02/20 06:37:46;;;;;;;3.58;0.90;;;;;;;6.14;59.52;100622.78;4474092;31;20156;-92
2023/02/20 06:40:12;;;;;;;2.60;0.40;;;;;;;6.12;59.51;100624.50;4468542;32;20101;-91
2023/02/20 06:42:37;;;;;;;2.05;0.60;;;;;;;6.17;59.52;100625.41;4458608;31;20153;-91
2023/02/20 06:45:03;;;;;;;3.22;0.82;;;;;;;6.11;59.52;100628.81;4460938;32;20106;-92
2023/02/20 06:47:29;;;;;;;1.45;0.80;;;;;;;6.16;59.53;100631.44;4457922;31;20164;-91
2023/02/20 06:49:54;;;;;;;2.95;0.80;;;;;;;6.22;59.53;100640.91;4471064;32;20161;-93
2023/02/20 06:52:20;;;;;;;2.67;0.95;;;;;;;6.42;59.54;100632.28;4471168;31;20451;-91
2023/02/20 06:54:45;;;;;;;3.95;0.93;;;;;;;6.53;59.54;100627.06;4472976;31;20096;-90
2023/02/20 06:57:11;;;;;;;2.03;0.88;;;;;;;6.52;59.54;100627.06;4453204;31;20123;-92
2023/02/20 06:59:40;;;;;;;2.28;0.62;;;;;;;6.53;59.54;100624.47;4473789;32;20449;-90
2023/02/20 07:02:08;;;;;;;3.07;0.83;;;;;;;6.62;59.54;100633.94;4474228;31;20153;-92
2023/02/20 07:04:34;;;;;;;2.05;0.77;;;;;;;6.71;59.55;100636.53;4473585;32;20671;-91
2023/02/20 07:07:01;;;;;;;2.97;1.08;;;;;;;6.58;59.55;100633.09;4468669;31;20147;-91
2023/02/20 07:09:26;;;;;;;3.62;0.77;;;;;;;6.63;59.54;100641.72;4476576;32;20100;-92
2023/02/20 07:11:52;;;;;;;2.03;0.70;;;;;;;6.65;59.56;100642.59;4470283;31;20164;-91
2023/02/20 07:14:17;;;;;;;2.85;1.00;;;;;;;6.84;59.55;100643.38;4463628;31;20430;-91
2023/02/20 07:16:42;;;;;;;2.08;0.55;;;;;;;6.67;59.55;100629.66;4473070;31;20108;-92
2023/02/20 07:19:08;;;;;;;2.50;0.80;;;;;;;6.67;59.55;100624.47;4474452;31;20108;-91
2023/02/20 07:21:33;;;;;;;3.90;1.12;;;;;;;6.86;59.56;100626.16;4473001;31;20421;-93
2023/02/20 07:23:59;;;;;;;3.40;1.10;;;;;;;6.91;59.56;100618.38;4476124;32;20084;-90
2023/02/20 07:26:26;;;;;;;3.92;0.90;;;;;;;6.58;59.55;100627.91;4466884;31;20124;-91
2023/02/20 07:28:52;;;;;;;3.45;1.00;;;;;;;6.69;59.55;100620.16;4463326;31;20127;-92
2023/02/20 07:31:17;;;;;;;3.72;0.80;;;;;;;6.63;59.54;100613.28;4470430;31;20148;-92
2023/02/20 07:33:43;;;;;;;2.70;1.17;;;;;;;6.75;59.55;100625.31;4474352;31;20380;-92
2023/02/20 07:36:09;;;;;;;6.82;1.70;;;;;;;6.95;59.57;100618.34;4461325;31;20427;-91
2023/02/20 07:38:35;;;;;;;3.80;1.60;;;;;;;6.99;59.57;100611.44;4472748;32;20112;-91
2023/02/20 07:41:00;;;;;;;5.97;1.15;;;;;;;6.97;59.57;100606.25;4473043;31;20099;-91
2023/02/20 07:43:26;;;;;;;2.00;1.20;;;;;;;7.08;59.57;100625.19;4465448;31;20101;-93
2023/02/20 07:45:51;;;;;;;4.22;1.40;;;;;;;7.14;59.57;100637.28;4473065;31;20405;-92
2023/02/20 07:48:17;;;;;;;2.87;1.00;;;;;;;7.30;59.58;100632.88;4473122;32;20104;-92
2023/02/20 07:50:42;;;;;;;4.00;1.30;;;;;;;7.37;59.59;100627.66;4472394;31;20159;-91
2023/02/20 07:53:09;;;;;;;2.97;1.23;;;;;;;7.27;59.58;100625.97;4475358;32;20164;-91
2023/02/20 07:55:34;;;;;;;3.33;1.37;;;;;;;7.27;59.58;100628.56;4470308;31;20115;-92
2023/02/20 07:58:00;;;;;;;5.25;1.30;;;;;;;7.37;59.59;100616.44;4465012;31;20477;-92
2023/02/20 08:00:25;;;;;;;7.55;1.52;;;;;;;7.56;59.61;100615.44;4464822;31;20084;-92
2023/02/20 08:02:51;;;;;;;4.55;1.62;;;;;;;7.64;59.61;100612.84;4485701;32;20460;-91
2023/02/20 08:05:17;;;;;;;3.33;1.55;;;;;;;7.69;59.60;100605.88;4480436;31;20104;-91
2023/02/20 08:07:46;;;;;;;2.85;1.50;;;;;;;7.70;59.61;100611.06;4461593;32;20152;-91
2023/02/20 08:10:12;;;;;;;3.47;1.60;;;;;;;7.53;59.60;100624.97;4470208;31;20150;-92
2023/02/20 08:12:37;;;;;;;5.40;1.73;;;;;;;7.37;59.59;100634.59;4462368;32;20376;-92
2023/02/20 08:15:03;;;;;;;3.50;1.50;;;;;;;7.45;59.59;100632.81;4469781;31;20460;-91
2023/02/20 08:17:28;;;;;;;6.22;2.37;;;;;;;7.48;59.60;100640.56;4459601;32;20145;-93
2023/02/20 08:19:53;;;;;;;4.35;1.55;;;;;;;7.39;59.58;100640.63;4469769;31;20490;-91
2023/02/20 08:22:19;;;;;;;4.25;1.80;;;;;;;7.36;59.59;100638.91;4461713;32;20105;-91
2023/02/20 08:24:44;;;;;;;4.15;1.77;;;;;;;7.24;59.58;100633.75;4472188;32;20104;-91
2023/02/20 08:27:10;;;;;;;6.15;1.83;;;;;;;7.09;59.57;100623.47;4474303;31;20175;-91
2023/02/20 08:29:35;;;;;;;9.73;2.30;;;;;;;7.22;59.58;100629.47;4488101;31;20374;-91
2023/02/20 08:32:01;;;;;;;5.00;1.95;;;;;;;7.31;59.58;100619.03;4487766;31;20136;-91
2023/02/20 08:34:26;;;;;;;8.65;2.33;;;;;;;7.48;59.60;100622.41;4488064;31;20100;-91
2023/02/20 08:36:52;;;;;;;5.32;1.95;;;;;;;7.53;59.60;100607.72;4485888;31;20136;-91
2023/02/20 08:39:17;;;;;;;12.20;2.20;;;;;;;7.46;59.59;100606.03;4468784;31;20080;-91
2023/02/20 08:41:46;;;;;;;6.68;2.22;;;;;;;7.53;59.59;100615.47;4485124;32;20132;-91
2023/02/20 08:44:11;;;;;;;4.10;2.05;;;;;;;7.65;59.61;100611.97;4459306;32;20767;-92
2023/02/20 08:46:37;;;;;;;8.43;2.87;;;;;;;7.72;59.61;100615.38;4477257;32;20109;-91
2023/02/20 08:49:02;;;;;;;5.28;2.08;;;;;;;7.95;59.62;100611.75;4473281;32;20096;-91
2023/02/20 08:51:28;;;;;;;6.10;2.33;;;;;;;7.91;59.61;100606.59;4472251;32;20093;-91
2023/02/20 08:53:53;;;;;;;4.07;2.20;;;;;;;8.11;59.63;100596.06;4486474;32;20157;-92
2023/02/20 08:56:20;;;;;;;8.68;2.20;;;;;;;8.39;59.65;100596.72;4474197;31;20152;-92
2023/02/20 08:58:45;;;;;;;4.28;2.20;;;;;;;8.49;59.65;100587.97;4471923;32;20140;-92
2023/02/20 09:01:11;;;;;;;6.70;2.05;;;;;;;8.58;59.66;100580.09;4484147;32;20527;-92
2023/02/20 09:03:40;;;;;;;5.00;2.20;;;;;;;8.65;59.66;100581.75;4485093;31;20101;-92
2023/02/20 09:06:06;;;;;;;5.00;2.00;;;;;;;8.73;59.66;100579.91;4474673;31;20130;-93
2023/02/20 09:08:31;;;;;;;3.87;1.90;;;;;;;8.71;59.66;100576.47;4471913;32;20099;-92
2023/02/20 09:10:57;;;;;;;4.68;2.25;;;;;;;8.66;59.67;100575.66;4463473;31;20075;-91
2023/02/20 09:13:22;;;;;;;3.95;2.50;;;;;;;8.66;59.66;100574.81;4474286;31;20108;-92
2023/02/20 09:15:48;;;;;;;5.15;2.53;;;;;;;8.98;59.68;100579.63;4471655;32;20526;-92
2023/02/20 09:18:15;;;;;;;4.28;2.40;;;;;;;9.18;59.68;100572.44;4471756;32;20131;-92
2023/02/20 09:20:41;;;;;;;5.20;2.65;;;;;;;9.38;59.70;100572.19;4474231;31;20114;-92
2023/02/20 09:23:07;;;;;;;6.05;2.47;;;;;;;9.56;59.70;100571.91;4472369;32;20373;-92
2023/02/20 09:25:32;;;;;;;3.40;1.90;;;;;;;9.55;59.71;100575.41;4469282;32;20437;-92
2023/02/20 09:27:58;;;;;;;9.20;2.50;;;;;;;9.72;59.71;100580.34;4471585;32;20136;-92
2023/02/20 09:30:23;;;;;;;5.00;2.60;;;;;;;9.90;59.73;100571.38;4473910;31;20091;-91
2023/02/20 09:32:49;;;;;;;4.30;1.98;;;;;;;9.87;59.73;100567.09;4471853;32;20112;-91
2023/02/20 09:35:33;;;;;;;5.40;2.30;;;;;;;9.84;59.72;100560.22;4471630;32;20471;-91
2023/02/20 09:37:58;;;;;;;3.15;2.15;;;;;;;10.01;59.75;100546.09;4458531;31;20076;-92
2023/02/20 09:40:25;;;;;;;6.55;2.30;;;;;;;10.40;59.76;100555.78;4471641;32;20110;-91
2023/02/20 09:43:12;;;;;;;2.40;1.87;;;;;;;10.34;59.76;100561.12;4483557;31;20118;-92
2023/02/20 09:45:38;;;;;;;4.00;2.00;;;;;;;10.63;59.77;100555.34;4485682;31;104528;-92
2023/02/20 09:48:26;;;;;;;2.20;1.70;;;;;;;10.58;59.77;100565.00;4471557;32;20084;-92
2023/02/20 09:51:07;;;;;;;4.40;1.60;;;;;;;10.71;59.77;100561.31;4481903;31;20110;-91
2023/02/20 09:53:34;;;;;;;5.37;1.60;;;;;;;10.81;59.78;100545.47;4472061;32;20127;-92
2023/02/20 09:56:00;;;;;;;3.00;2.00;;;;;;;10.98;59.79;100533.84;4484698;31;20127;-92
2023/02/20 09:58:34;;;;;;;4.18;1.67;;;;;;;11.19;59.80;100527.31;4487178;31;20178;-91
2023/02/20 10:01:00;;;;;;;3.22;1.62;;;;;;;11.43;59.81;100517.22;4486271;31;20135;-92
2023/02/20 10:03:33;;;;;;;3.08;1.50;;;;;;;11.55;59.82;100522.97;4467529;31;20134;-92
2023/02/20 10:05:59;;;;;;;2.70;1.40;;;;;;;11.67;59.83;100524.47;4488787;31;20117;-92
2023/02/20 10:08:24;;;;;;;2.45;1.20;;;;;;;11.91;59.84;100512.59;4475004;31;20095;-93
2023/02/20 10:10:50;;;;;;;2.58;1.35;;;;;;;12.13;59.84;100508.53;4469083;32;20088;-92
2023/02/20 10:13:31;;;;;;;2.72;1.60;;;;;;;12.17;59.85;100496.25;4468599;31;20116;-91
2023/02/20 10:16:02;;;;;;;1.70;1.10;;;;;;;12.39;59.86;100493.94;4458929;32;20100;-92
2023/02/20 10:18:48;;;;;;;2.22;1.50;;;;;;;12.50;59.88;100495.31;4484486;31;20063;-91
2023/02/20 10:21:38;;;;;;;2.65;1.40;;;;;;;12.67;59.89;100492.25;4480580;31;20107;-92
2023/02/20 10:24:33;;;;;;;4.85;1.55;;;;;;;12.72;59.88;100486.88;4494595;31;20116;-93
2023/02/20 10:27:18;;;;;;;3.20;1.20;;;;;;;12.69;59.88;100476.53;4484490;31;20095;-92
2023/02/20 10:29:43;;;;;;;2.72;1.50;;;;;;;12.83;59.89;100454.34;4471900;31;20108;-91
2023/02/20 10:32:11;;;;;;;2.28;1.40;;;;;;;13.09;59.90;100450.94;4458129;32;20092;-93
2023/02/20 10:34:43;;;;;;;2.83;1.35;;;;;;;13.17;59.91;100459.41;4470744;31;20131;-93
2023/02/20 10:37:20;;;;;;;4.43;1.77;;;;;;;13.02;59.89;100470.31;4477244;32;20143;-92
2023/02/20 10:40:15;;;;;;;3.62;1.37;;;;;;;12.88;59.89;100462.03;4472978;31;20110;-91
2023/02/20 10:42:46;;;;;;;5.15;1.65;;;;;;;12.89;59.90;100461.13;4484542;31;20080;-92
2023/02/20 10:45:50;;;;;;;3.83;1.85;;;;;;;12.84;59.89;100450.81;4460250;32;20738;-92
2023/02/20 10:48:16;;;;;;;2.00;1.50;;;;;;;12.96;59.90;100454.81;4466700;31;20088;-92
2023/02/20 10:50:44;;;;;;;7.18;2.10;;;;;;;13.14;59.91;100459.47;4472962;32;20121;-92
2023/02/20 10:53:25;;;;;;;2.92;1.50;;;;;;;13.03;59.91;100451.13;4487398;31;20107;-92
2023/02/20 10:55:53;;;;;;;3.40;1.77;;;;;;;13.11;59.90;100443.87;4470789;31;20472;-92
2023/02/20 10:58:27;;;;;;;2.67;1.67;;;;;;;13.25;59.91;100426.94;4485883;32;20127;-92
2023/02/20 11:01:04;;;;;;;3.90;1.83;;;;;;;13.51;59.93;100419.09;4476134;31;20076;-92
2023/02/20 11:03:41;;;;;;;4.18;1.85;;;;;;;13.71;59.94;100413.19;4470262;32;20084;-92
2023/02/20 11:06:08;;;;;;;5.43;1.80;;;;;;;13.73;59.94;100414.88;4473116;31;20156;-92
2023/02/20 11:08:33;;;;;;;3.45;1.90;;;;;;;13.80;59.95;100405.88;4460082;31;20095;-93
2023/02/20 11:11:05;;;;;;;3.00;2.00;;;;;;;13.63;59.93;100396.91;4473204;32;20143;-92
2023/02/20 11:13:30;;;;;;;2.67;1.90;;;;;;;13.74;59.94;100393.03;4460748;31;20420;-93
2023/02/20 11:15:57;;;;;;;3.75;2.12;;;;;;;13.78;59.93;100392.00;4463416;32;20127;-92
2023/02/20 11:18:27;;;;;;;4.10;2.22;;;;;;;13.64;59.94;100386.37;4459996;31;20124;-91
2023/02/20 11:20:54;;;;;;;7.50;2.37;;;;;;;13.37;59.92;100377.72;4479981;31;20704;-91
2023/02/20 11:23:36;;;;;;;5.32;2.37;;;;;;;13.43;59.93;100372.28;4488076;31;20136;-93
2023/02/20 11:26:20;;;;;;;4.12;2.33;;;;;;;13.63;59.93;100363.75;4481389;31;20091;-92
2023/02/20 11:28:55;;;;;;;3.90;2.37;;;;;;;13.80;59.95;100347.47;4486809;31;20093;-92
2023/02/20 11:31:21;;;;;;;5.65;2.20;;;;;;;13.68;59.94;100353.97;4468352;31;20123;-93
2023/02/20 11:33:48;;;;;;;3.58;2.20;;;;;;;13.86;59.94;100349.00;4459819;32;20100;-93
2023/02/20 11:36:18;;;;;;;4.35;2.67;;;;;;;14.03;59.96;100330.94;4470814;31;20771;-93
2023/02/20 11:38:43;;;;;;;5.65;2.35;;;;;;;14.10;59.96;100341.09;4473581;31;20116;-92
2023/02/20 11:41:20;;;;;;;5.10;2.55;;;;;;;14.13;59.96;100340.12;4481584;31;20343;-93
2023/02/20 11:43:47;;;;;;;5.85;2.37;;;;;;;14.14;59.97;100334.00;4459789;32;20096;-91
2023/02/20 11:46:15;;;;;;;8.18;2.10;;;;;;;14.21;59.97;100332.03;4483676;31;20116;-92
2023/02/20 11:48:56;;;;;;;3.87;2.42;;;;;;;14.35;59.98;100320.09;4468209;31;20804;-93
2023/02/20 11:51:35;;;;;;;9.05;2.87;;;;;;;14.20;59.97;100306.75;4488020;31;20084;-92
2023/02/20 11:54:08;;;;;;;9.10;2.60;;;;;;;14.25;59.96;100303.03;4487610;31;20118;-93
2023/02/20 11:56:33;;;;;;;4.00;2.35;;;;;;;14.37;59.97;100294.69;4472664;32;20497;-92
2023/02/20 11:59:40;;;;;;;4.82;2.17;;;;;;;14.52;59.99;100303.75;4473771;31;20135;-94
2023/02/20 12:02:14;;;;;;;8.27;2.30;;;;;;;14.57;59.99;100286.09;4474313;31;20088;-92
2023/02/20 12:04:44;;;;;;;7.22;2.37;;;;;;;14.55;59.98;100289.69;4485856;32;20437;-92